TimeEDT,TemperatureF,Dew PointF,Humidity,Sea Level PressureIn,VisibilityMPH,Wind Direction,Wind SpeedMPH,Gust SpeedMPH,PrecipitationIn,Events,Conditions,WindDirDegrees,DateUTC
12:49 AM,44.6,42.8,93,29.82,2.5,East,20.7,26.5,0.06,Rain-Thunderstorm,Light Thunderstorms and Rain,80,2013-04-11 04:49:00
12:53 AM,44.1,41.0,89,29.85,3.0,East,20.7,26.5,0.07,Rain-Thunderstorm,Light Thunderstorms and Rain,90,2013-04-11 04:53:00
1:04 AM,44.6,42.8,93,29.88,4.0,Variable,3.5,24.2,0.01,Rain,Light Rain,0,2013-04-11 05:04:00
1:12 AM,44.6,41.0,87,29.79,2.5,East,24.2,29.9,0.12,Rain-Thunderstorm,Thunderstorms and Rain,80,2013-04-11 05:12:00
1:20 AM,44.6,41.0,87,29.79,1.2,ENE,20.7,31.1,0.26,Rain-Thunderstorm,Heavy Thunderstorms and Rain,70,2013-04-11 05:20:00
1:25 AM,44.6,41.0,87,29.83,2.0,NE,9.2,31.1,0.27,Rain-Thunderstorm,Thunderstorms and Rain,40,2013-04-11 05:25:00
1:27 AM,44.6,41.0,87,29.83,3.0,NNE,11.5,31.1,0.27,Rain-Thunderstorm,Light Thunderstorms and Rain,20,2013-04-11 05:27:00
1:41 AM,44.6,41.0,87,29.78,2.0,ENE,25.3,33.4,0.40,Rain-Thunderstorm,Heavy Thunderstorms and Rain,70,2013-04-11 05:41:00
1:49 AM,44.6,41.0,87,29.82,3.0,NE,11.5,33.4,0.44,Rain-Thunderstorm,Light Thunderstorms and Rain,40,2013-04-11 05:49:00
1:53 AM,44.1,41.0,89,29.81,4.0,ENE,11.5,18.4,0.46,Rain-Thunderstorm,Thunderstorms and Rain,70,2013-04-11 05:53:00
2:00 AM,42.8,41.0,93,29.77,1.8,East,25.3,32.2,0.11,Rain-Thunderstorm,Heavy Thunderstorms and Rain,80,2013-04-11 06:00:00
2:07 AM,42.8,41.0,93,29.80,1.5,East,16.1,32.2,0.21,Rain-Thunderstorm,Heavy Thunderstorms and Rain,80,2013-04-11 06:07:00
2:14 AM,44.6,41.0,87,29.83,3.0,NW,8.1,26.5,0.21,Rain-Thunderstorm,Light Thunderstorms and Rain,310,2013-04-11 06:14:00
2:22 AM,44.6,41.0,87,29.77,7.0,East,25.3,29.9,0.22,Rain-Thunderstorm,Light Thunderstorms and Rain,80,2013-04-11 06:22:00
2:31 AM,44.6,41.0,87,29.79,2.5,East,19.6,28.8,0.32,Rain-Thunderstorm,Heavy Thunderstorms and Rain,80,2013-04-11 06:31:00
2:35 AM,44.6,41.0,87,29.80,2.5,ENE,16.1,25.3,0.36,Rain-Thunderstorm,Heavy Thunderstorms and Rain,60,2013-04-11 06:35:00
2:48 AM,44.6,41.0,87,29.88,1.5,NNW,8.1,41.4,0.52,Rain-Thunderstorm,Heavy Thunderstorms and Rain,340,2013-04-11 06:48:00
2:53 AM,44.1,41.0,89,29.88,2.5,ENE,8.1,-,0.53,Rain,Light Rain,60,2013-04-11 06:53:00
2:58 AM,44.6,41.0,87,29.85,6.0,East,10.4,-,0.00,Rain,Light Rain,80,2013-04-11 06:58:00
3:53 AM,44.1,39.9,85,29.79,10.0,East,13.8,-,0.05,Rain,Light Rain,80,2013-04-11 07:53:00
4:38 AM,44.6,39.2,81,29.81,7.0,ENE,9.2,-,0.04,Rain,Light Rain,70,2013-04-11 08:38:00
4:53 AM,44.1,39.9,85,29.80,10.0,East,8.1,-,0.04,Rain,Light Rain,80,2013-04-11 08:53:00
5:11 AM,44.6,39.2,81,29.79,10.0,ENE,15.0,19.6,N/A,,Overcast,60,2013-04-11 09:11:00
5:42 AM,44.6,39.2,81,29.77,10.0,East,16.1,-,N/A,,Overcast,80,2013-04-11 09:42:00
5:53 AM,43.0,39.0,86,29.78,10.0,East,16.1,21.9,N/A,,Overcast,90,2013-04-11 09:53:00
6:19 AM,42.8,39.2,87,29.77,10.0,East,15.0,-,0.00,Rain,Light Rain,90,2013-04-11 10:19:00
6:45 AM,42.8,39.2,87,29.77,10.0,East,13.8,-,0.00,,Overcast,90,2013-04-11 10:45:00
6:53 AM,43.0,39.9,89,29.80,10.0,East,13.8,-,0.00,Rain,Light Rain,100,2013-04-11 10:53:00
7:53 AM,43.0,39.9,89,29.78,10.0,East,13.8,-,0.01,,Overcast,90,2013-04-11 11:53:00
8:53 AM,44.1,39.9,85,29.77,9.0,East,17.3,-,N/A,,Overcast,90,2013-04-11 12:53:00
9:53 AM,44.1,39.9,85,29.75,9.0,East,17.3,23.0,N/A,,Unknown,90,2013-04-11 13:53:00
12:27 PM,42.8,39.2,87,29.72,2.5,East,18.4,25.3,N/A,Rain,Light Rain,90,2013-04-11 16:27:00
1:15 PM,42.8,39.2,87,29.72,1.8,East,19.6,26.5,0.02,Rain,Light Rain,100,2013-04-11 17:15:00
1:30 PM,42.8,39.2,87,29.71,2.5,East,16.1,25.3,0.04,Rain,Light Rain,90,2013-04-11 17:30:00
1:53 PM,43.0,41.0,93,29.69,2.5,East,13.8,-,0.05,Rain,Light Rain,100,2013-04-11 17:53:00
2:00 PM,42.8,41.0,93,29.68,4.0,East,17.3,-,0.00,Rain,Light Rain,90,2013-04-11 18:00:00
2:39 PM,42.8,41.0,93,29.67,1.8,East,17.3,25.3,0.01,Rain,Light Rain,100,2013-04-11 18:39:00
2:53 PM,43.0,41.0,93,29.67,2.0,East,16.1,-,0.01,Rain,Light Rain,100,2013-04-11 18:53:00
3:17 PM,42.8,41.0,93,29.68,1.2,East,11.5,18.4,0.01,Rain,Light Rain,100,2013-04-11 19:17:00
3:33 PM,44.6,41.0,87,29.68,2.5,East,13.8,-,0.03,Rain,Light Rain,90,2013-04-11 19:33:00
3:46 PM,44.6,41.0,87,29.68,5.0,East,15.0,-,0.04,Rain,Light Rain,90,2013-04-11 19:46:00
3:53 PM,44.1,41.0,89,29.67,6.0,East,13.8,-,0.04,Rain,Light Rain,90,2013-04-11 19:53:00
4:25 PM,42.8,41.0,93,29.65,1.8,East,11.5,21.9,0.00,,Overcast,100,2013-04-11 20:25:00
4:53 PM,43.0,41.0,93,29.64,1.2,East,16.1,-,0.00,Rain,Light Rain,100,2013-04-11 20:53:00
5:16 PM,42.8,41.0,93,29.63,2.0,East,13.8,-,0.00,Rain,Light Rain,100,2013-04-11 21:16:00
5:53 PM,43.0,41.0,93,29.65,1.8,ESE,8.1,18.4,0.03,Rain,Light Rain,110,2013-04-11 21:53:00
6:03 PM,42.8,41.0,93,29.64,2.0,ESE,9.2,-,0.01,Rain,Light Rain,120,2013-04-11 22:03:00
6:53 PM,42.1,39.9,92,29.62,3.0,East,9.2,-,0.08,Rain,Light Rain,80,2013-04-11 22:53:00
7:53 PM,42.1,39.0,89,29.63,5.0,ESE,5.8,-,0.04,Rain,Light Rain,120,2013-04-11 23:53:00
8:10 PM,42.8,39.2,87,29.64,7.0,East,8.1,-,0.01,Rain,Light Rain,100,2013-04-12 00:10:00
8:35 PM,41.0,39.2,93,29.63,2.0,East,9.2,-,0.05,Rain,Rain,100,2013-04-12 00:35:00
8:53 PM,41.0,37.9,89,29.61,2.5,East,11.5,-,0.07,Rain,Light Rain,90,2013-04-12 00:53:00
9:04 PM,41.0,37.4,87,29.61,3.0,East,10.4,-,0.01,Rain,Light Rain,90,2013-04-12 01:04:00
9:24 PM,41.0,37.4,87,29.61,3.0,East,10.4,-,0.02,Rain,Light Rain,100,2013-04-12 01:24:00
9:34 PM,41.0,37.4,87,29.61,2.5,East,9.2,-,0.04,Rain,Light Rain,90,2013-04-12 01:34:00
9:46 PM,41.0,37.4,87,29.59,3.0,East,8.1,-,0.05,Rain,Light Rain,80,2013-04-12 01:46:00
9:53 PM,41.0,37.9,89,29.60,3.0,East,8.1,-,0.05,Rain,Light Rain,80,2013-04-12 01:53:00
10:53 PM,39.9,37.9,93,29.59,2.5,East,8.1,-,0.04,Rain,Light Rain,80,2013-04-12 02:53:00
11:01 PM,39.2,37.4,93,29.59,4.0,East,9.2,-,0.00,Rain,Light Rain,80,2013-04-12 03:01:00
11:53 PM,39.9,37.9,93,29.59,4.0,East,5.8,-,0.01,,Overcast,80,2013-04-12 03:53:00